sensor_id;sensor_type;location;lat;lon;timestamp;temperature;humidity
51908;DHT22;39320;53.214;6.556;2023-05-07T00:00:38;13.40;99.90
51908;DHT22;39320;53.214;6.556;2023-05-07T00:03:22;13.30;99.90
51908;DHT22;39320;53.214;6.556;2023-05-07T00:05:47;13.20;99.90
51908;DHT22;39320;53.214;6.556;2023-05-07T00:08:13;13.20;99.90
51908;DHT22;39320;53.214;6.556;2023-05-07T00:10:39;13.20;99.90
51908;DHT22;39320;53.214;6.556;2023-05-07T00:13:05;13.20;99.90
51908;DHT22;39320;53.214;6.556;2023-05-07T00:15:31;13.20;99.90
51908;DHT22;39320;53.214;6.556;2023-05-07T00:17:56;13.10;99.90
51908;DHT22;39320;53.214;6.556;2023-05-07T00:20:25;13.20;99.90
51908;DHT22;39320;53.214;6.556;2023-05-07T00:22:50;13.10;99.90
51908;DHT22;39320;53.214;6.556;2023-05-07T00:25:16;13.10;99.90
51908;DHT22;39320;53.214;6.556;2023-05-07T00:27:45;13.20;99.90
51908;DHT22;39320;53.214;6.556;2023-05-07T00:30:11;13.10;99.90
51908;DHT22;39320;53.214;6.556;2023-05-07T00:32:37;13.10;99.90
51908;DHT22;39320;53.214;6.556;2023-05-07T00:35:04;13.10;99.90
51908;DHT22;39320;53.214;6.556;2023-05-07T00:37:29;13.10;99.90
51908;DHT22;39320;53.214;6.556;2023-05-07T00:39:55;13.10;99.90
51908;DHT22;39320;53.214;6.556;2023-05-07T00:42:21;13.10;99.90
51908;DHT22;39320;53.214;6.556;2023-05-07T00:44:47;13.10;99.90
51908;DHT22;39320;53.214;6.556;2023-05-07T00:47:14;13.00;99.90
51908;DHT22;39320;53.214;6.556;2023-05-07T00:49:44;12.80;99.90
51908;DHT22;39320;53.214;6.556;2023-05-07T00:52:16;13.00;99.90
51908;DHT22;39320;53.214;6.556;2023-05-07T00:54:42;12.90;99.90
51908;DHT22;39320;53.214;6.556;2023-05-07T00:57:09;12.90;99.90
51908;DHT22;39320;53.214;6.556;2023-05-07T00:59:36;12.90;99.90
51908;DHT22;39320;53.214;6.556;2023-05-07T01:02:02;12.90;99.90
51908;DHT22;39320;53.214;6.556;2023-05-07T01:04:28;12.90;99.90
51908;DHT22;39320;53.214;6.556;2023-05-07T01:06:58;12.90;99.90
51908;DHT22;39320;53.214;6.556;2023-05-07T01:09:25;12.90;99.90
51908;DHT22;39320;53.214;6.556;2023-05-07T01:11:52;12.90;99.90
51908;DHT22;39320;53.214;6.556;2023-05-07T01:14:19;12.90;99.90
51908;DHT22;39320;53.214;6.556;2023-05-07T01:16:46;12.90;99.90
51908;DHT22;39320;53.214;6.556;2023-05-07T01:19:14;12.90;99.90
51908;DHT22;39320;53.214;6.556;2023-05-07T01:21:46;12.90;99.90
51908;DHT22;39320;53.214;6.556;2023-05-07T01:24:12;12.90;99.90
51908;DHT22;39320;53.214;6.556;2023-05-07T01:26:39;12.80;99.90
51908;DHT22;39320;53.214;6.556;2023-05-07T01:29:05;12.80;99.90
51908;DHT22;39320;53.214;6.556;2023-05-07T01:31:32;12.80;99.90
51908;DHT22;39320;53.214;6.556;2023-05-07T01:33:59;12.70;99.90
51908;DHT22;39320;53.214;6.556;2023-05-07T01:36:27;12.80;99.90
51908;DHT22;39320;53.214;6.556;2023-05-07T01:38:54;12.80;99.90
51908;DHT22;39320;53.214;6.556;2023-05-07T01:41:24;12.80;99.90
51908;DHT22;39320;53.214;6.556;2023-05-07T01:43:50;12.80;99.90
51908;DHT22;39320;53.214;6.556;2023-05-07T01:46:17;12.80;99.90
51908;DHT22;39320;53.214;6.556;2023-05-07T01:48:45;12.00;99.90
51908;DHT22;39320;53.214;6.556;2023-05-07T01:51:11;12.70;99.90
51908;DHT22;39320;53.214;6.556;2023-05-07T01:53:38;12.70;99.90
51908;DHT22;39320;53.214;6.556;2023-05-07T01:56:05;12.70;99.90
51908;DHT22;39320;53.214;6.556;2023-05-07T01:58:31;12.70;99.90
51908;DHT22;39320;53.214;6.556;2023-05-07T02:00:56;12.70;99.90
51908;DHT22;39320;53.214;6.556;2023-05-07T02:03:22;12.60;99.90
51908;DHT22;39320;53.214;6.556;2023-05-07T02:05:48;12.60;99.90
51908;DHT22;39320;53.214;6.556;2023-05-07T02:08:14;12.60;99.90
51908;DHT22;39320;53.214;6.556;2023-05-07T02:10:40;12.60;99.90
51908;DHT22;39320;53.214;6.556;2023-05-07T02:13:06;12.60;99.90
51908;DHT22;39320;53.214;6.556;2023-05-07T02:15:31;12.50;99.90
51908;DHT22;39320;53.214;6.556;2023-05-07T02:18:05;12.50;99.90
51908;DHT22;39320;53.214;6.556;2023-05-07T02:20:31;12.60;99.90
51908;DHT22;39320;53.214;6.556;2023-05-07T02:22:57;12.60;99.90
51908;DHT22;39320;53.214;6.556;2023-05-07T02:25:23;12.40;99.90
51908;DHT22;39320;53.214;6.556;2023-05-07T02:27:49;12.50;99.90
51908;DHT22;39320;53.214;6.556;2023-05-07T02:30:15;12.50;99.90
51908;DHT22;39320;53.214;6.556;2023-05-07T02:32:41;12.50;99.90
51908;DHT22;39320;53.214;6.556;2023-05-07T02:35:07;12.50;99.90
51908;DHT22;39320;53.214;6.556;2023-05-07T02:37:33;12.50;99.90
51908;DHT22;39320;53.214;6.556;2023-05-07T02:39:59;12.10;99.90
51908;DHT22;39320;53.214;6.556;2023-05-07T02:42:25;12.50;99.90
51908;DHT22;39320;53.214;6.556;2023-05-07T02:44:50;12.50;99.90
51908;DHT22;39320;53.214;6.556;2023-05-07T02:47:16;12.50;99.90
51908;DHT22;39320;53.214;6.556;2023-05-07T02:49:42;12.50;99.90
51908;DHT22;39320;53.214;6.556;2023-05-07T02:52:09;12.50;99.90
51908;DHT22;39320;53.214;6.556;2023-05-07T02:54:34;12.60;99.90
51908;DHT22;39320;53.214;6.556;2023-05-07T02:57:00;12.50;99.90
51908;DHT22;39320;53.214;6.556;2023-05-07T02:59:27;12.50;99.90
51908;DHT22;39320;53.214;6.556;2023-05-07T03:01:53;12.60;99.90
51908;DHT22;39320;53.214;6.556;2023-05-07T03:04:18;12.60;99.90
51908;DHT22;39320;53.214;6.556;2023-05-07T03:06:44;12.50;99.90
51908;DHT22;39320;53.214;6.556;2023-05-07T03:09:10;12.60;99.90
51908;DHT22;39320;53.214;6.556;2023-05-07T03:11:36;12.50;99.90
51908;DHT22;39320;53.214;6.556;2023-05-07T03:14:02;12.50;99.90
51908;DHT22;39320;53.214;6.556;2023-05-07T03:16:28;12.40;99.90
51908;DHT22;39320;53.214;6.556;2023-05-07T03:18:53;12.40;99.90
51908;DHT22;39320;53.214;6.556;2023-05-07T03:21:19;12.40;99.90
51908;DHT22;39320;53.214;6.556;2023-05-07T03:23:45;12.40;99.90
51908;DHT22;39320;53.214;6.556;2023-05-07T03:26:11;12.40;99.90
51908;DHT22;39320;53.214;6.556;2023-05-07T03:28:37;12.30;99.90
51908;DHT22;39320;53.214;6.556;2023-05-07T03:31:02;12.30;99.90
51908;DHT22;39320;53.214;6.556;2023-05-07T03:33:28;12.30;99.90
51908;DHT22;39320;53.214;6.556;2023-05-07T03:35:54;12.30;99.90
51908;DHT22;39320;53.214;6.556;2023-05-07T03:38:20;12.30;99.90
51908;DHT22;39320;53.214;6.556;2023-05-07T03:40:46;12.30;99.90
51908;DHT22;39320;53.214;6.556;2023-05-07T03:43:11;12.30;99.90
51908;DHT22;39320;53.214;6.556;2023-05-07T03:45:37;12.20;99.90
51908;DHT22;39320;53.214;6.556;2023-05-07T03:48:03;12.30;99.90
51908;DHT22;39320;53.214;6.556;2023-05-07T03:50:29;12.30;99.90
51908;DHT22;39320;53.214;6.556;2023-05-07T03:52:55;12.20;99.90
51908;DHT22;39320;53.214;6.556;2023-05-07T03:55:20;12.20;99.90
51908;DHT22;39320;53.214;6.556;2023-05-07T03:57:46;12.20;99.90
51908;DHT22;39320;53.214;6.556;2023-05-07T04:00:12;12.30;99.90
51908;DHT22;39320;53.214;6.556;2023-05-07T04:02:38;12.30;99.90
51908;DHT22;39320;53.214;6.556;2023-05-07T04:05:04;12.30;99.90
51908;DHT22;39320;53.214;6.556;2023-05-07T04:07:30;12.20;99.90
51908;DHT22;39320;53.214;6.556;2023-05-07T04:09:56;12.20;99.90
51908;DHT22;39320;53.214;6.556;2023-05-07T04:12:22;12.20;99.90
51908;DHT22;39320;53.214;6.556;2023-05-07T04:14:48;12.20;99.90
51908;DHT22;39320;53.214;6.556;2023-05-07T04:17:13;12.30;99.90
51908;DHT22;39320;53.214;6.556;2023-05-07T04:19:39;12.30;99.90
51908;DHT22;39320;53.214;6.556;2023-05-07T04:22:05;12.30;99.90
51908;DHT22;39320;53.214;6.556;2023-05-07T04:24:33;12.30;99.90
51908;DHT22;39320;53.214;6.556;2023-05-07T04:26:59;12.30;99.90
51908;DHT22;39320;53.214;6.556;2023-05-07T04:29:25;12.30;99.90
51908;DHT22;39320;53.214;6.556;2023-05-07T04:31:50;12.30;99.90
51908;DHT22;39320;53.214;6.556;2023-05-07T04:34:16;12.30;99.90
51908;DHT22;39320;53.214;6.556;2023-05-07T04:36:42;12.30;99.90
51908;DHT22;39320;53.214;6.556;2023-05-07T04:39:08;12.30;99.90
51908;DHT22;39320;53.214;6.556;2023-05-07T04:41:36;12.30;99.90
51908;DHT22;39320;53.214;6.556;2023-05-07T04:44:02;12.30;99.90
51908;DHT22;39320;53.214;6.556;2023-05-07T04:46:29;11.50;99.90
51908;DHT22;39320;53.214;6.556;2023-05-07T04:48:55;12.30;99.90
51908;DHT22;39320;53.214;6.556;2023-05-07T04:51:21;12.20;99.90
51908;DHT22;39320;53.214;6.556;2023-05-07T04:53:47;12.20;99.90
51908;DHT22;39320;53.214;6.556;2023-05-07T04:56:12;12.20;99.90
51908;DHT22;39320;53.214;6.556;2023-05-07T04:58:38;12.20;99.90
51908;DHT22;39320;53.214;6.556;2023-05-07T05:01:04;12.20;99.90
51908;DHT22;39320;53.214;6.556;2023-05-07T05:03:30;12.20;99.90
51908;DHT22;39320;53.214;6.556;2023-05-07T05:05:56;12.10;99.90
51908;DHT22;39320;53.214;6.556;2023-05-07T05:08:25;12.10;99.90
51908;DHT22;39320;53.214;6.556;2023-05-07T05:10:51;12.10;99.90
51908;DHT22;39320;53.214;6.556;2023-05-07T05:13:17;12.10;99.90
51908;DHT22;39320;53.214;6.556;2023-05-07T05:15:43;12.10;99.90
51908;DHT22;39320;53.214;6.556;2023-05-07T05:18:08;12.10;99.90
51908;DHT22;39320;53.214;6.556;2023-05-07T05:20:34;12.00;99.90
51908;DHT22;39320;53.214;6.556;2023-05-07T05:23:00;11.60;99.90
51908;DHT22;39320;53.214;6.556;2023-05-07T05:25:26;12.10;99.90
51908;DHT22;39320;53.214;6.556;2023-05-07T05:27:51;11.60;99.90
51908;DHT22;39320;53.214;6.556;2023-05-07T05:30:17;12.10;99.90
51908;DHT22;39320;53.214;6.556;2023-05-07T05:32:43;12.10;99.90
51908;DHT22;39320;53.214;6.556;2023-05-07T05:35:09;12.00;99.90
51908;DHT22;39320;53.214;6.556;2023-05-07T05:37:34;12.00;99.90
51908;DHT22;39320;53.214;6.556;2023-05-07T05:40:00;12.20;99.90
51908;DHT22;39320;53.214;6.556;2023-05-07T05:42:26;12.00;99.90
51908;DHT22;39320;53.214;6.556;2023-05-07T05:44:52;12.20;99.90
51908;DHT22;39320;53.214;6.556;2023-05-07T05:47:17;12.20;99.90
51908;DHT22;39320;53.214;6.556;2023-05-07T05:49:43;12.00;99.90
51908;DHT22;39320;53.214;6.556;2023-05-07T05:52:12;12.00;99.90
51908;DHT22;39320;53.214;6.556;2023-05-07T05:54:39;12.10;99.90
51908;DHT22;39320;53.214;6.556;2023-05-07T05:57:05;12.00;99.90
51908;DHT22;39320;53.214;6.556;2023-05-07T05:59:31;12.00;99.90
51908;DHT22;39320;53.214;6.556;2023-05-07T06:01:57;12.00;99.90
51908;DHT22;39320;53.214;6.556;2023-05-07T06:04:23;12.00;99.90
51908;DHT22;39320;53.214;6.556;2023-05-07T06:06:51;12.00;99.90
51908;DHT22;39320;53.214;6.556;2023-05-07T06:09:17;12.00;99.90
51908;DHT22;39320;53.214;6.556;2023-05-07T06:11:43;12.00;99.90
51908;DHT22;39320;53.214;6.556;2023-05-07T06:14:08;12.00;99.90
51908;DHT22;39320;53.214;6.556;2023-05-07T06:16:34;11.90;99.90
51908;DHT22;39320;53.214;6.556;2023-05-07T06:19:01;11.90;99.90
51908;DHT22;39320;53.214;6.556;2023-05-07T06:21:26;11.90;99.90
51908;DHT22;39320;53.214;6.556;2023-05-07T06:23:52;11.90;99.90
51908;DHT22;39320;53.214;6.556;2023-05-07T06:26:18;11.90;99.90
51908;DHT22;39320;53.214;6.556;2023-05-07T06:28:43;11.90;99.90
51908;DHT22;39320;53.214;6.556;2023-05-07T06:31:17;12.00;99.90
51908;DHT22;39320;53.214;6.556;2023-05-07T06:33:46;12.00;99.90
51908;DHT22;39320;53.214;6.556;2023-05-07T06:36:12;12.00;99.90
51908;DHT22;39320;53.214;6.556;2023-05-07T06:38:38;12.00;99.90
51908;DHT22;39320;53.214;6.556;2023-05-07T06:41:05;11.70;99.90
51908;DHT22;39320;53.214;6.556;2023-05-07T06:43:31;11.90;99.90
51908;DHT22;39320;53.214;6.556;2023-05-07T06:45:57;11.70;99.90
51908;DHT22;39320;53.214;6.556;2023-05-07T06:48:28;12.00;99.90
51908;DHT22;39320;53.214;6.556;2023-05-07T06:50:54;12.00;99.90
51908;DHT22;39320;53.214;6.556;2023-05-07T06:53:23;12.00;99.90
51908;DHT22;39320;53.214;6.556;2023-05-07T06:55:49;12.00;99.90
51908;DHT22;39320;53.214;6.556;2023-05-07T06:58:14;12.00;99.90
51908;DHT22;39320;53.214;6.556;2023-05-07T07:00:40;12.10;99.90
51908;DHT22;39320;53.214;6.556;2023-05-07T07:03:06;12.10;99.90
51908;DHT22;39320;53.214;6.556;2023-05-07T07:05:32;12.10;99.90
51908;DHT22;39320;53.214;6.556;2023-05-07T07:07:58;12.10;99.90
51908;DHT22;39320;53.214;6.556;2023-05-07T07:10:24;12.10;99.90
51908;DHT22;39320;53.214;6.556;2023-05-07T07:12:50;12.10;99.90
51908;DHT22;39320;53.214;6.556;2023-05-07T07:15:16;12.00;99.90
51908;DHT22;39320;53.214;6.556;2023-05-07T07:17:42;12.10;99.90
51908;DHT22;39320;53.214;6.556;2023-05-07T07:20:08;12.00;99.90
51908;DHT22;39320;53.214;6.556;2023-05-07T07:22:34;12.10;99.90
51908;DHT22;39320;53.214;6.556;2023-05-07T07:24:59;11.90;99.90
51908;DHT22;39320;53.214;6.556;2023-05-07T07:27:25;12.10;99.90
51908;DHT22;39320;53.214;6.556;2023-05-07T07:29:51;12.10;99.90
51908;DHT22;39320;53.214;6.556;2023-05-07T07:32:17;12.10;99.90
51908;DHT22;39320;53.214;6.556;2023-05-07T07:34:43;12.10;99.90
51908;DHT22;39320;53.214;6.556;2023-05-07T07:37:08;12.10;99.90
51908;DHT22;39320;53.214;6.556;2023-05-07T07:39:34;12.10;99.90
51908;DHT22;39320;53.214;6.556;2023-05-07T07:42:00;12.10;99.90
51908;DHT22;39320;53.214;6.556;2023-05-07T07:44:27;12.10;99.90
51908;DHT22;39320;53.214;6.556;2023-05-07T07:46:53;12.10;99.90
51908;DHT22;39320;53.214;6.556;2023-05-07T07:49:19;12.20;99.90
51908;DHT22;39320;53.214;6.556;2023-05-07T07:51:45;12.20;99.90
51908;DHT22;39320;53.214;6.556;2023-05-07T07:54:11;12.20;99.90
51908;DHT22;39320;53.214;6.556;2023-05-07T07:56:36;12.20;99.90
51908;DHT22;39320;53.214;6.556;2023-05-07T07:59:02;12.20;99.90
51908;DHT22;39320;53.214;6.556;2023-05-07T08:01:30;12.20;99.90
51908;DHT22;39320;53.214;6.556;2023-05-07T08:03:56;12.30;99.90
51908;DHT22;39320;53.214;6.556;2023-05-07T08:06:24;12.20;99.90
51908;DHT22;39320;53.214;6.556;2023-05-07T08:08:51;12.30;99.90
51908;DHT22;39320;53.214;6.556;2023-05-07T08:11:17;12.30;99.90
51908;DHT22;39320;53.214;6.556;2023-05-07T08:13:43;12.30;99.90
51908;DHT22;39320;53.214;6.556;2023-05-07T08:16:09;12.30;99.90
51908;DHT22;39320;53.214;6.556;2023-05-07T08:18:35;12.40;99.90
51908;DHT22;39320;53.214;6.556;2023-05-07T08:21:01;12.40;99.90
51908;DHT22;39320;53.214;6.556;2023-05-07T08:23:27;12.40;99.90
51908;DHT22;39320;53.214;6.556;2023-05-07T08:25:53;12.40;99.90
51908;DHT22;39320;53.214;6.556;2023-05-07T08:28:19;12.40;99.90
51908;DHT22;39320;53.214;6.556;2023-05-07T08:30:46;12.40;99.90
51908;DHT22;39320;53.214;6.556;2023-05-07T08:33:12;12.70;99.90
51908;DHT22;39320;53.214;6.556;2023-05-07T08:35:38;12.40;99.90
51908;DHT22;39320;53.214;6.556;2023-05-07T08:38:04;12.40;99.90
51908;DHT22;39320;53.214;6.556;2023-05-07T08:40:36;12.40;99.90
51908;DHT22;39320;53.214;6.556;2023-05-07T08:43:05;12.40;99.90
51908;DHT22;39320;53.214;6.556;2023-05-07T08:45:33;12.40;99.90
51908;DHT22;39320;53.214;6.556;2023-05-07T08:48:02;12.50;99.90
51908;DHT22;39320;53.214;6.556;2023-05-07T08:50:29;12.50;99.90
51908;DHT22;39320;53.214;6.556;2023-05-07T08:52:55;12.60;99.90
51908;DHT22;39320;53.214;6.556;2023-05-07T08:55:22;12.60;99.90
51908;DHT22;39320;53.214;6.556;2023-05-07T08:57:48;12.60;99.90
51908;DHT22;39320;53.214;6.556;2023-05-07T09:00:14;12.70;99.90
51908;DHT22;39320;53.214;6.556;2023-05-07T09:02:40;12.70;99.90
51908;DHT22;39320;53.214;6.556;2023-05-07T09:05:06;12.70;99.90
51908;DHT22;39320;53.214;6.556;2023-05-07T09:07:32;12.70;99.90
51908;DHT22;39320;53.214;6.556;2023-05-07T09:10:00;12.70;99.90
51908;DHT22;39320;53.214;6.556;2023-05-07T09:12:26;12.20;99.90
51908;DHT22;39320;53.214;6.556;2023-05-07T09:14:52;12.80;99.90
51908;DHT22;39320;53.214;6.556;2023-05-07T09:17:18;12.80;99.90
51908;DHT22;39320;53.214;6.556;2023-05-07T09:19:45;12.80;99.90
51908;DHT22;39320;53.214;6.556;2023-05-07T09:22:14;12.80;99.90
51908;DHT22;39320;53.214;6.556;2023-05-07T09:24:39;12.90;99.90
51908;DHT22;39320;53.214;6.556;2023-05-07T09:27:06;12.90;99.90
51908;DHT22;39320;53.214;6.556;2023-05-07T09:29:33;12.90;99.90
51908;DHT22;39320;53.214;6.556;2023-05-07T09:32:06;12.90;99.90
51908;DHT22;39320;53.214;6.556;2023-05-07T09:34:33;13.00;99.90
51908;DHT22;39320;53.214;6.556;2023-05-07T09:37:02;13.00;99.90
51908;DHT22;39320;53.214;6.556;2023-05-07T09:39:44;12.60;99.90
51908;DHT22;39320;53.214;6.556;2023-05-07T09:42:11;13.10;99.90
51908;DHT22;39320;53.214;6.556;2023-05-07T09:44:37;13.10;99.90
51908;DHT22;39320;53.214;6.556;2023-05-07T09:47:07;13.10;99.90
51908;DHT22;39320;53.214;6.556;2023-05-07T09:49:35;13.10;99.90
51908;DHT22;39320;53.214;6.556;2023-05-07T09:52:08;13.10;99.90
51908;DHT22;39320;53.214;6.556;2023-05-07T09:54:38;13.20;99.90
51908;DHT22;39320;53.214;6.556;2023-05-07T09:57:05;13.20;99.90
51908;DHT22;39320;53.214;6.556;2023-05-07T09:59:32;13.20;99.90
51908;DHT22;39320;53.214;6.556;2023-05-07T10:01:59;13.30;99.90
51908;DHT22;39320;53.214;6.556;2023-05-07T10:04:26;13.20;99.90
51908;DHT22;39320;53.214;6.556;2023-05-07T10:06:52;13.30;99.90
51908;DHT22;39320;53.214;6.556;2023-05-07T10:09:20;13.30;99.90
51908;DHT22;39320;53.214;6.556;2023-05-07T10:11:48;13.30;99.90
51908;DHT22;39320;53.214;6.556;2023-05-07T10:14:14;13.40;99.90
51908;DHT22;39320;53.214;6.556;2023-05-07T10:16:41;13.30;99.90
51908;DHT22;39320;53.214;6.556;2023-05-07T10:19:07;13.40;99.90
51908;DHT22;39320;53.214;6.556;2023-05-07T10:21:40;13.40;99.90
51908;DHT22;39320;53.214;6.556;2023-05-07T10:24:13;13.50;99.90
51908;DHT22;39320;53.214;6.556;2023-05-07T10:26:44;13.50;99.90
51908;DHT22;39320;53.214;6.556;2023-05-07T10:29:35;13.50;99.90
51908;DHT22;39320;53.214;6.556;2023-05-07T10:32:48;13.50;99.90
51908;DHT22;39320;53.214;6.556;2023-05-07T10:34:50;13.50;99.90
51908;DHT22;39320;53.214;6.556;2023-05-07T10:37:19;13.50;99.90
51908;DHT22;39320;53.214;6.556;2023-05-07T10:39:45;13.60;99.90
51908;DHT22;39320;53.214;6.556;2023-05-07T10:42:13;13.70;99.90
51908;DHT22;39320;53.214;6.556;2023-05-07T10:44:39;13.70;99.90
51908;DHT22;39320;53.214;6.556;2023-05-07T10:47:13;13.70;99.90
51908;DHT22;39320;53.214;6.556;2023-05-07T10:52:27;13.80;99.90
51908;DHT22;39320;53.214;6.556;2023-05-07T10:57:46;13.90;99.90
51908;DHT22;39320;53.214;6.556;2023-05-07T11:05:26;14.10;99.90
51908;DHT22;39320;53.214;6.556;2023-05-07T11:07:57;14.20;99.90
51908;DHT22;39320;53.214;6.556;2023-05-07T11:10:23;14.20;99.90
51908;DHT22;39320;53.214;6.556;2023-05-07T11:12:52;14.30;99.90
51908;DHT22;39320;53.214;6.556;2023-05-07T11:15:38;14.40;99.90
51908;DHT22;39320;53.214;6.556;2023-05-07T11:18:04;14.40;99.90
51908;DHT22;39320;53.214;6.556;2023-05-07T11:20:45;14.50;99.90
51908;DHT22;39320;53.214;6.556;2023-05-07T11:26:09;14.60;99.90
51908;DHT22;39320;53.214;6.556;2023-05-07T11:28:42;14.60;99.90
51908;DHT22;39320;53.214;6.556;2023-05-07T11:31:10;14.60;99.90
51908;DHT22;39320;53.214;6.556;2023-05-07T11:33:37;14.60;99.90
51908;DHT22;39320;53.214;6.556;2023-05-07T11:36:03;14.30;99.90
51908;DHT22;39320;53.214;6.556;2023-05-07T11:38:30;14.70;99.90
51908;DHT22;39320;53.214;6.556;2023-05-07T11:40:58;14.70;99.90
51908;DHT22;39320;53.214;6.556;2023-05-07T11:43:26;14.80;99.90
51908;DHT22;39320;53.214;6.556;2023-05-07T11:45:52;14.80;99.90
51908;DHT22;39320;53.214;6.556;2023-05-07T11:48:19;14.90;99.90
51908;DHT22;39320;53.214;6.556;2023-05-07T11:53:33;14.90;99.90
51908;DHT22;39320;53.214;6.556;2023-05-07T11:56:00;15.00;99.90
51908;DHT22;39320;53.214;6.556;2023-05-07T11:58:26;15.10;99.90
51908;DHT22;39320;53.214;6.556;2023-05-07T12:00:53;15.10;99.90
51908;DHT22;39320;53.214;6.556;2023-05-07T12:03:20;15.10;99.90
51908;DHT22;39320;53.214;6.556;2023-05-07T12:05:46;15.20;99.90
51908;DHT22;39320;53.214;6.556;2023-05-07T12:08:16;15.30;99.90
51908;DHT22;39320;53.214;6.556;2023-05-07T12:10:47;15.30;99.90
51908;DHT22;39320;53.214;6.556;2023-05-07T12:13:22;15.40;99.90
51908;DHT22;39320;53.214;6.556;2023-05-07T12:15:57;15.40;99.90
51908;DHT22;39320;53.214;6.556;2023-05-07T12:18:23;15.40;99.90
51908;DHT22;39320;53.214;6.556;2023-05-07T12:20:49;15.50;99.90
51908;DHT22;39320;53.214;6.556;2023-05-07T12:23:16;15.50;99.90
51908;DHT22;39320;53.214;6.556;2023-05-07T12:25:43;15.50;99.90
51908;DHT22;39320;53.214;6.556;2023-05-07T12:28:19;15.50;99.90
51908;DHT22;39320;53.214;6.556;2023-05-07T12:30:49;15.60;99.90
51908;DHT22;39320;53.214;6.556;2023-05-07T12:33:24;15.60;99.90
51908;DHT22;39320;53.214;6.556;2023-05-07T12:35:50;15.60;99.90
51908;DHT22;39320;53.214;6.556;2023-05-07T12:38:17;15.70;99.90
51908;DHT22;39320;53.214;6.556;2023-05-07T12:40:48;15.60;99.90
51908;DHT22;39320;53.214;6.556;2023-05-07T12:43:17;15.70;99.90
51908;DHT22;39320;53.214;6.556;2023-05-07T12:45:44;15.70;99.90
51908;DHT22;39320;53.214;6.556;2023-05-07T12:48:11;15.70;99.90
51908;DHT22;39320;53.214;6.556;2023-05-07T12:50:37;15.70;99.90
51908;DHT22;39320;53.214;6.556;2023-05-07T12:53:04;15.80;99.90
51908;DHT22;39320;53.214;6.556;2023-05-07T12:55:55;15.80;99.90
51908;DHT22;39320;53.214;6.556;2023-05-07T12:58:27;15.90;99.90
51908;DHT22;39320;53.214;6.556;2023-05-07T13:00:54;16.00;99.90
51908;DHT22;39320;53.214;6.556;2023-05-07T13:03:31;16.20;99.90
51908;DHT22;39320;53.214;6.556;2023-05-07T13:06:08;16.40;99.90
51908;DHT22;39320;53.214;6.556;2023-05-07T13:08:40;16.50;99.90
51908;DHT22;39320;53.214;6.556;2023-05-07T13:11:15;16.60;99.90
51908;DHT22;39320;53.214;6.556;2023-05-07T13:13:41;16.70;99.90
51908;DHT22;39320;53.214;6.556;2023-05-07T13:16:10;16.70;99.90
51908;DHT22;39320;53.214;6.556;2023-05-07T13:18:37;16.90;99.90
51908;DHT22;39320;53.214;6.556;2023-05-07T13:21:03;17.00;99.90
51908;DHT22;39320;53.214;6.556;2023-05-07T13:23:29;17.10;99.90
51908;DHT22;39320;53.214;6.556;2023-05-07T13:25:55;17.10;99.90
51908;DHT22;39320;53.214;6.556;2023-05-07T13:28:23;17.10;99.90
51908;DHT22;39320;53.214;6.556;2023-05-07T13:30:49;17.20;99.90
51908;DHT22;39320;53.214;6.556;2023-05-07T13:33:17;16.90;99.90
51908;DHT22;39320;53.214;6.556;2023-05-07T13:35:43;17.30;99.90
51908;DHT22;39320;53.214;6.556;2023-05-07T13:38:09;17.40;99.90
51908;DHT22;39320;53.214;6.556;2023-05-07T13:40:35;17.30;99.90
51908;DHT22;39320;53.214;6.556;2023-05-07T13:43:01;17.50;99.90
51908;DHT22;39320;53.214;6.556;2023-05-07T13:45:30;17.60;99.90
51908;DHT22;39320;53.214;6.556;2023-05-07T13:47:56;17.60;99.90
51908;DHT22;39320;53.214;6.556;2023-05-07T13:50:22;17.60;99.90
51908;DHT22;39320;53.214;6.556;2023-05-07T13:52:48;17.30;99.90
51908;DHT22;39320;53.214;6.556;2023-05-07T13:55:19;17.60;99.90
51908;DHT22;39320;53.214;6.556;2023-05-07T13:57:46;17.60;99.90
51908;DHT22;39320;53.214;6.556;2023-05-07T14:00:13;17.70;99.90
51908;DHT22;39320;53.214;6.556;2023-05-07T14:02:39;17.70;99.90
51908;DHT22;39320;53.214;6.556;2023-05-07T14:05:06;17.70;99.90
51908;DHT22;39320;53.214;6.556;2023-05-07T14:07:32;17.90;99.90
51908;DHT22;39320;53.214;6.556;2023-05-07T14:09:58;17.90;99.90
51908;DHT22;39320;53.214;6.556;2023-05-07T14:12:24;18.00;99.90
51908;DHT22;39320;53.214;6.556;2023-05-07T14:14:50;18.00;99.90
51908;DHT22;39320;53.214;6.556;2023-05-07T14:17:19;18.00;99.90
51908;DHT22;39320;53.214;6.556;2023-05-07T14:19:45;18.00;99.90
51908;DHT22;39320;53.214;6.556;2023-05-07T14:22:13;17.90;99.90
51908;DHT22;39320;53.214;6.556;2023-05-07T14:24:39;17.90;99.90
51908;DHT22;39320;53.214;6.556;2023-05-07T14:27:05;17.90;99.90
51908;DHT22;39320;53.214;6.556;2023-05-07T14:29:31;17.80;99.90
51908;DHT22;39320;53.214;6.556;2023-05-07T14:31:57;17.90;99.90
51908;DHT22;39320;53.214;6.556;2023-05-07T14:34:23;17.70;99.90
51908;DHT22;39320;53.214;6.556;2023-05-07T14:36:49;18.00;99.90
51908;DHT22;39320;53.214;6.556;2023-05-07T14:39:14;18.10;99.90
51908;DHT22;39320;53.214;6.556;2023-05-07T14:41:40;18.20;99.90
51908;DHT22;39320;53.214;6.556;2023-05-07T14:44:06;18.20;99.90
51908;DHT22;39320;53.214;6.556;2023-05-07T14:46:32;18.20;99.90
51908;DHT22;39320;53.214;6.556;2023-05-07T14:48:58;18.10;99.90
51908;DHT22;39320;53.214;6.556;2023-05-07T14:51:23;18.10;99.90
51908;DHT22;39320;53.214;6.556;2023-05-07T14:53:50;18.00;99.90
51908;DHT22;39320;53.214;6.556;2023-05-07T14:56:16;18.00;99.90
51908;DHT22;39320;53.214;6.556;2023-05-07T14:58:43;18.00;99.90
51908;DHT22;39320;53.214;6.556;2023-05-07T15:01:09;18.00;99.90
51908;DHT22;39320;53.214;6.556;2023-05-07T15:03:35;18.10;99.90
51908;DHT22;39320;53.214;6.556;2023-05-07T15:06:02;18.30;99.90
51908;DHT22;39320;53.214;6.556;2023-05-07T15:08:28;18.30;99.90
51908;DHT22;39320;53.214;6.556;2023-05-07T15:10:54;18.30;99.90
51908;DHT22;39320;53.214;6.556;2023-05-07T15:13:21;18.20;99.90
51908;DHT22;39320;53.214;6.556;2023-05-07T15:15:47;18.20;99.90
51908;DHT22;39320;53.214;6.556;2023-05-07T15:18:14;18.10;99.90
51908;DHT22;39320;53.214;6.556;2023-05-07T15:20:40;18.20;99.90
51908;DHT22;39320;53.214;6.556;2023-05-07T15:23:07;18.10;99.90
51908;DHT22;39320;53.214;6.556;2023-05-07T15:25:38;18.10;99.90
51908;DHT22;39320;53.214;6.556;2023-05-07T15:28:03;18.10;99.90
51908;DHT22;39320;53.214;6.556;2023-05-07T15:30:29;18.20;99.90
51908;DHT22;39320;53.214;6.556;2023-05-07T15:32:55;18.10;99.90
51908;DHT22;39320;53.214;6.556;2023-05-07T15:35:21;18.20;99.90
51908;DHT22;39320;53.214;6.556;2023-05-07T15:37:48;18.20;99.90
51908;DHT22;39320;53.214;6.556;2023-05-07T15:40:17;18.20;99.90
51908;DHT22;39320;53.214;6.556;2023-05-07T15:42:44;18.30;99.90
51908;DHT22;39320;53.214;6.556;2023-05-07T15:45:11;18.30;99.90